createdAt,value
2023-02-11T00:01:22.573Z,15.30
2023-02-11T00:03:53.083Z,17.80
2023-02-11T00:06:23.870Z,17.70
2023-02-11T00:08:54.646Z,13.50
2023-02-11T00:11:29.996Z,14.30
2023-02-11T00:14:02.187Z,15.00
2023-02-11T00:16:33.498Z,16.90
2023-02-11T00:19:06.297Z,15.80
2023-02-11T00:21:36.529Z,15.10
2023-02-11T00:24:07.633Z,17.80
2023-02-11T00:26:38.488Z,14.40
2023-02-11T00:29:09.237Z,17.90
2023-02-11T00:31:39.941Z,16.90
2023-02-11T00:34:10.585Z,17.60
2023-02-11T00:36:40.880Z,16.10
2023-02-11T00:39:11.658Z,18.40
2023-02-11T00:41:41.969Z,14.90
2023-02-11T00:44:12.991Z,14.20
2023-02-11T00:46:43.731Z,15.70
2023-02-11T00:49:14.381Z,17.00
2023-02-11T00:51:44.705Z,17.50
2023-02-11T00:54:14.922Z,16.30
2023-02-11T00:56:45.274Z,17.30
2023-02-11T00:59:16.209Z,20.30
2023-02-11T01:01:46.860Z,17.00
2023-02-11T01:04:17.296Z,16.40
2023-02-11T01:06:48.173Z,16.70
2023-02-11T01:09:19.760Z,15.40
2023-02-11T01:11:50.034Z,20.70
2023-02-11T01:14:21.648Z,17.10
2023-02-11T01:16:51.946Z,20.00
2023-02-11T01:19:22.334Z,24.90
2023-02-11T01:21:53.753Z,16.60
2023-02-11T01:24:24.438Z,18.70
2023-02-11T01:26:54.772Z,17.20
2023-02-11T01:29:25.126Z,18.40
2023-02-11T01:31:55.743Z,18.10
2023-02-11T01:34:26.066Z,21.80
2023-02-11T01:36:59.767Z,21.30
2023-02-11T01:39:33.233Z,20.40
2023-02-11T01:42:03.705Z,21.10
2023-02-11T01:44:35.625Z,17.60
2023-02-11T01:47:07.886Z,17.40
2023-02-11T01:49:43.466Z,19.40
2023-02-11T01:52:33.948Z,19.70
2023-02-11T01:55:24.866Z,17.90
2023-02-11T01:57:57.863Z,17.30
2023-02-11T02:00:31.459Z,18.10
2023-02-11T02:03:06.324Z,23.10
2023-02-11T02:05:41.167Z,18.60
2023-02-11T02:08:15.525Z,18.70
2023-02-11T02:10:48.604Z,18.40
2023-02-11T02:13:19.137Z,19.40
2023-02-11T02:15:51.880Z,20.50
2023-02-11T02:18:34.567Z,18.60
2023-02-11T02:21:29.412Z,16.40
2023-02-11T02:24:11.537Z,22.10
2023-02-11T02:27:04.064Z,20.20
2023-02-11T02:29:58.286Z,19.50
2023-02-11T02:32:48.811Z,23.40
2023-02-11T02:35:29.274Z,21.40
2023-02-11T02:38:03.859Z,16.00
2023-02-11T02:40:35.924Z,17.50
2023-02-11T02:43:06.682Z,20.40
2023-02-11T02:45:37.072Z,24.80
2023-02-11T02:48:07.645Z,16.70
2023-02-11T02:50:39.911Z,15.00
2023-02-11T02:53:20.994Z,17.80
2023-02-11T02:56:03.514Z,18.60
2023-02-11T02:58:51.964Z,17.50
2023-02-11T03:01:30.630Z,17.50
2023-02-11T03:04:06.665Z,16.60
2023-02-11T03:06:47.060Z,19.90
2023-02-11T03:09:22.159Z,18.60
2023-02-11T03:11:52.548Z,21.00
2023-02-11T03:14:24.153Z,19.00
2023-02-11T03:16:55.559Z,17.10
2023-02-11T03:19:37.335Z,20.10
2023-02-11T03:22:11.552Z,20.00
2023-02-11T03:24:42.722Z,20.70
2023-02-11T03:27:18.987Z,21.10
2023-02-11T03:29:54.091Z,18.10
2023-02-11T03:32:27.845Z,21.80
2023-02-11T03:35:00.016Z,18.50
2023-02-11T03:37:33.980Z,17.80
2023-02-11T03:40:07.640Z,19.90
2023-02-11T03:42:42.717Z,20.20
2023-02-11T03:45:17.164Z,16.90
2023-02-11T03:47:49.646Z,15.40
2023-02-11T03:50:20.974Z,19.30
2023-02-11T03:52:52.328Z,17.80
2023-02-11T03:55:25.653Z,17.60
2023-02-11T03:57:55.987Z,20.80
2023-02-11T04:00:32.766Z,18.50
2023-02-11T04:03:03.624Z,18.00
2023-02-11T04:05:34.237Z,19.70
2023-02-11T04:08:04.657Z,17.70
2023-02-11T04:10:35.069Z,20.40
2023-02-11T04:13:05.623Z,17.90
2023-02-11T04:15:36.146Z,17.50
2023-02-11T04:18:06.727Z,18.80
2023-02-11T04:20:37.300Z,18.70
2023-02-11T04:23:07.694Z,27.50
2023-02-11T04:25:38.684Z,21.60
2023-02-11T04:28:09.025Z,17.60
2023-02-11T04:30:39.412Z,18.60
2023-02-11T04:33:09.987Z,23.50
2023-02-11T04:35:40.469Z,17.70
2023-02-11T04:38:11.150Z,22.20
2023-02-11T04:40:41.746Z,17.10
2023-02-11T04:43:11.910Z,18.50
2023-02-11T04:45:42.322Z,16.60
2023-02-11T04:48:13.354Z,20.90
2023-02-11T04:50:44.208Z,21.80
2023-02-11T04:53:19.812Z,16.00
2023-02-11T04:55:52.302Z,18.90
2023-02-11T04:58:24.245Z,23.80
2023-02-11T05:00:55.022Z,20.00
2023-02-11T05:03:25.973Z,21.80
2023-02-11T05:05:56.492Z,21.60
2023-02-11T05:08:26.653Z,23.90
2023-02-11T05:10:57.449Z,19.00
2023-02-11T05:13:27.736Z,16.80
2023-02-11T05:15:58.674Z,18.90
2023-02-11T05:18:28.865Z,18.50
2023-02-11T05:20:59.661Z,17.70
2023-02-11T05:23:36.309Z,16.60
2023-02-11T05:26:08.055Z,18.00
2023-02-11T05:28:40.031Z,23.30
2023-02-11T05:31:11.708Z,18.30
2023-02-11T05:33:43.400Z,19.10
2023-02-11T05:36:14.789Z,21.60
2023-02-11T05:38:45.381Z,17.30
2023-02-11T05:41:16.253Z,22.80
2023-02-11T05:43:48.232Z,22.70
2023-02-11T05:46:18.966Z,20.00
2023-02-11T05:48:49.399Z,21.40
2023-02-11T05:51:19.849Z,19.50
2023-02-11T05:53:50.436Z,18.90
2023-02-11T05:56:21.832Z,27.70
2023-02-11T05:58:52.318Z,24.60
2023-02-11T06:01:24.511Z,19.80
2023-02-11T06:03:55.544Z,20.30
2023-02-11T06:06:32.795Z,22.10
2023-02-11T06:09:06.299Z,27.30
2023-02-11T06:11:39.430Z,18.20
2023-02-11T06:14:11.840Z,20.10
2023-02-11T06:16:46.350Z,25.60
2023-02-11T06:19:17.633Z,24.70
2023-02-11T06:21:53.008Z,18.50
2023-02-11T06:24:54.742Z,20.20
2023-02-11T06:27:20.644Z,31.40
2023-02-11T06:29:52.132Z,22.50
2023-02-11T06:35:18.520Z,22.60
2023-02-11T06:37:54.052Z,16.70
2023-02-11T06:40:25.040Z,29.90
2023-02-11T06:42:56.266Z,21.00
2023-02-11T06:45:28.547Z,20.10
2023-02-11T06:47:59.375Z,17.20
2023-02-11T06:50:33.906Z,21.60
2023-02-11T06:53:04.872Z,23.00
2023-02-11T06:55:37.035Z,19.80
2023-02-11T06:58:11.907Z,18.10
2023-02-11T07:00:42.786Z,27.10
2023-02-11T07:03:13.609Z,21.00
2023-02-11T07:05:45.249Z,28.50
2023-02-11T07:08:16.483Z,22.20
2023-02-11T07:10:47.504Z,25.20
2023-02-11T07:13:19.641Z,19.50
2023-02-11T07:15:51.808Z,18.20
2023-02-11T07:18:25.045Z,20.70
2023-02-11T07:20:55.659Z,18.40
2023-02-11T07:23:32.222Z,23.90
2023-02-11T07:26:08.942Z,23.90
2023-02-11T07:28:40.412Z,24.80
2023-02-11T07:31:13.364Z,22.70
2023-02-11T07:33:53.893Z,23.10
2023-02-11T07:36:26.806Z,23.70
2023-02-11T07:38:59.889Z,21.90
2023-02-11T07:41:31.484Z,14.30
2023-02-11T07:44:05.420Z,13.60
2023-02-11T07:46:36.129Z,14.20
2023-02-11T07:49:06.750Z,12.70
2023-02-11T07:51:39.304Z,13.30
2023-02-11T07:54:11.593Z,14.50
2023-02-11T07:56:41.771Z,14.50
2023-02-11T07:59:13.353Z,13.50
2023-02-11T08:01:43.861Z,13.10
2023-02-11T08:04:15.935Z,12.50
2023-02-11T08:06:46.172Z,13.40
2023-02-11T08:09:17.874Z,13.60
2023-02-11T08:11:50.003Z,14.10
2023-02-11T08:14:21.161Z,16.30
2023-02-11T08:16:51.929Z,14.50
2023-02-11T08:19:37.727Z,12.90
2023-02-11T08:22:33.353Z,11.60
2023-02-11T08:25:07.556Z,12.70
2023-02-11T08:27:39.074Z,12.80
2023-02-11T08:30:11.971Z,14.40
2023-02-11T08:32:47.699Z,13.20
2023-02-11T08:35:19.584Z,11.30
2023-02-11T08:37:50.555Z,11.20
2023-02-11T08:40:21.669Z,22.20
2023-02-11T08:42:52.540Z,10.40
2023-02-11T08:45:25.329Z,14.40
2023-02-11T08:47:56.190Z,15.50
2023-02-11T08:50:28.459Z,20.60
2023-02-11T08:52:58.938Z,20.90
2023-02-11T08:55:29.203Z,16.50
2023-02-11T08:57:59.874Z,16.40
2023-02-11T09:00:31.465Z,19.30
2023-02-11T09:03:02.573Z,12.50
2023-02-11T09:05:42.191Z,16.90
2023-02-11T09:08:16.635Z,14.20
2023-02-11T09:10:49.424Z,14.00
2023-02-11T09:13:21.422Z,12.10
2023-02-11T09:15:52.980Z,13.30
2023-02-11T09:18:23.560Z,16.70
2023-02-11T09:20:58.929Z,17.00
2023-02-11T09:23:29.880Z,12.30
2023-02-11T09:26:02.507Z,12.90
2023-02-11T09:28:34.608Z,16.90
2023-02-11T09:31:08.582Z,13.00
2023-02-11T09:33:39.361Z,13.60
2023-02-11T09:36:11.993Z,14.40
2023-02-11T09:38:48.047Z,12.90
2023-02-11T09:41:35.793Z,14.80
2023-02-11T09:46:45.451Z,15.00
2023-02-11T09:49:20.818Z,17.40
2023-02-11T09:52:06.171Z,16.10
2023-02-11T09:54:44.121Z,19.40
2023-02-11T09:57:28.245Z,19.30
2023-02-11T09:59:59.977Z,11.40
2023-02-11T10:02:44.932Z,12.50
2023-02-11T10:05:36.060Z,14.10
2023-02-11T10:08:15.215Z,15.20
2023-02-11T10:10:53.521Z,13.40
2023-02-11T10:13:45.385Z,14.20
2023-02-11T10:16:36.103Z,15.00
2023-02-11T10:19:28.946Z,16.90
2023-02-11T10:22:09.655Z,17.70
2023-02-11T10:24:40.827Z,17.10
2023-02-11T10:27:17.616Z,13.10
2023-02-11T10:32:33.638Z,16.30
2023-02-11T10:35:11.642Z,11.60
2023-02-11T10:37:44.546Z,13.30
2023-02-11T10:40:19.798Z,13.00
2023-02-11T10:42:55.576Z,14.80
2023-02-11T10:45:31.437Z,18.90
2023-02-11T10:48:02.356Z,12.20
2023-02-11T10:50:34.717Z,11.10
2023-02-11T10:53:21.194Z,13.80
2023-02-11T10:55:53.521Z,12.70
2023-02-11T10:58:29.584Z,16.10
2023-02-11T11:01:01.097Z,21.30
2023-02-11T11:03:35.084Z,16.20
2023-02-11T11:06:07.887Z,15.50
2023-02-11T11:08:43.929Z,14.40
2023-02-11T11:11:17.077Z,14.70
2023-02-11T11:14:03.036Z,14.80
2023-02-11T11:16:34.222Z,14.80
2023-02-11T11:19:23.315Z,20.30
2023-02-11T11:21:56.081Z,18.10
2023-02-11T11:24:30.150Z,18.80
2023-02-11T11:27:02.659Z,15.90
2023-02-11T11:29:35.533Z,14.40
2023-02-11T11:32:15.847Z,16.60
2023-02-11T11:34:51.166Z,15.20
2023-02-11T11:37:25.517Z,14.30
2023-02-11T11:39:59.695Z,17.60
2023-02-11T11:42:32.640Z,17.90
2023-02-11T11:45:06.139Z,15.90
2023-02-11T11:47:38.846Z,13.90
2023-02-11T11:50:25.070Z,14.70
2023-02-11T11:53:00.015Z,14.00
2023-02-11T11:55:37.247Z,11.80
2023-02-11T11:58:14.253Z,13.70
2023-02-11T12:03:30.260Z,11.50
2023-02-11T12:06:14.072Z,13.80
2023-02-11T12:08:53.116Z,11.30
2023-02-11T12:11:26.699Z,16.80
2023-02-11T12:14:07.634Z,13.60
2023-02-11T12:16:48.880Z,16.40
2023-02-11T12:19:44.229Z,14.20
2023-02-11T12:22:26.985Z,17.70
2023-02-11T12:25:17.772Z,16.70
2023-02-11T12:28:02.729Z,16.40
2023-02-11T12:30:53.565Z,15.60
2023-02-11T12:33:36.868Z,17.90
2023-02-11T12:36:31.743Z,16.80
2023-02-11T12:39:13.210Z,13.50
2023-02-11T12:42:11.154Z,14.40
2023-02-11T12:44:57.378Z,19.10
2023-02-11T12:47:34.999Z,15.40
2023-02-11T12:50:19.584Z,18.60
2023-02-11T12:53:08.550Z,15.00
2023-02-11T12:55:48.382Z,17.20
2023-02-11T12:58:29.694Z,25.80
2023-02-11T13:01:09.696Z,13.70
2023-02-11T13:03:43.319Z,18.80
2023-02-11T13:06:18.004Z,16.80
2023-02-11T13:08:53.309Z,24.30
2023-02-11T13:11:29.466Z,14.90
2023-02-11T13:14:03.919Z,16.90
2023-02-11T13:16:41.689Z,15.40
2023-02-11T13:19:23.769Z,15.00
2023-02-11T13:22:08.125Z,16.60
2023-02-11T13:24:44.879Z,15.70
2023-02-11T13:27:25.803Z,16.60
2023-02-11T13:30:22.386Z,14.40
2023-02-11T13:33:20.695Z,18.40
2023-02-11T13:38:40.438Z,14.70
2023-02-11T13:41:24.603Z,21.80
2023-02-11T13:44:37.572Z,16.70
2023-02-11T13:47:33.454Z,24.30
2023-02-11T13:50:08.093Z,15.90
2023-02-11T13:52:39.602Z,13.30
2023-02-11T13:55:22.575Z,15.00
2023-02-11T13:58:19.485Z,20.90
2023-02-11T14:00:58.224Z,18.70
2023-02-11T14:04:00.594Z,15.00
2023-02-11T14:06:50.598Z,18.00
2023-02-11T14:09:48.180Z,17.20
2023-02-11T14:12:36.151Z,18.60
2023-02-11T14:15:33.220Z,19.50
2023-02-11T14:18:24.644Z,19.10
2023-02-11T14:21:09.856Z,15.50
2023-02-11T14:23:44.030Z,21.00
2023-02-11T14:26:39.983Z,19.10
2023-02-11T14:29:19.418Z,20.80
2023-02-11T14:31:59.200Z,13.90
2023-02-11T14:34:41.390Z,16.20
2023-02-11T14:37:29.160Z,18.00
2023-02-11T14:40:08.929Z,17.90
2023-02-11T14:42:44.244Z,19.50
2023-02-11T14:45:21.064Z,23.10
2023-02-11T14:47:56.131Z,16.20
2023-02-11T14:50:34.324Z,18.90
2023-02-11T14:53:08.138Z,19.40
2023-02-11T14:55:40.854Z,20.00
2023-02-11T14:58:16.951Z,20.40
2023-02-11T15:01:06.171Z,21.30
2023-02-11T15:03:39.392Z,23.10
2023-02-11T15:06:20.735Z,18.70
2023-02-11T15:08:55.383Z,18.10
2023-02-11T15:11:28.337Z,19.20
2023-02-11T15:14:10.153Z,28.60
2023-02-11T15:16:48.933Z,21.10
2023-02-11T15:19:34.194Z,25.60
2023-02-11T15:22:10.538Z,30.60
2023-02-11T15:24:42.655Z,21.50
2023-02-11T15:27:18.714Z,22.80
2023-02-11T15:29:50.822Z,19.40
2023-02-11T15:32:25.481Z,19.70
2023-02-11T15:34:58.394Z,26.90
2023-02-11T15:37:30.049Z,28.60
2023-02-11T15:40:11.458Z,26.10
2023-02-11T15:42:52.426Z,24.50
2023-02-11T15:45:29.276Z,22.80
2023-02-11T15:48:09.782Z,32.50
2023-02-11T15:50:58.382Z,20.80
2023-02-11T15:53:32.609Z,24.40
2023-02-11T15:56:10.378Z,24.30
2023-02-11T15:58:45.360Z,21.90
2023-02-11T16:01:37.091Z,25.00
2023-02-11T16:04:13.961Z,20.80
2023-02-11T16:06:47.713Z,24.10
2023-02-11T16:09:33.827Z,23.30
2023-02-11T16:12:26.259Z,24.50
2023-02-11T16:15:05.055Z,23.60
2023-02-11T16:20:22.015Z,21.80
2023-02-11T16:22:54.534Z,29.60
2023-02-11T16:25:36.291Z,30.10
2023-02-11T16:28:16.899Z,23.90
2023-02-11T16:30:56.524Z,24.90
2023-02-11T16:33:28.721Z,36.90
2023-02-11T16:36:02.546Z,21.30
2023-02-11T16:38:34.300Z,24.50
2023-02-11T16:41:08.171Z,26.10
2023-02-11T16:43:38.748Z,31.10
2023-02-11T16:46:15.783Z,30.90
2023-02-11T16:51:19.274Z,28.60
2023-02-11T16:53:50.544Z,22.90
2023-02-11T16:56:22.868Z,28.40
2023-02-11T16:58:54.759Z,29.00
2023-02-11T17:01:25.702Z,25.50
2023-02-11T17:03:58.608Z,45.80
2023-02-11T17:06:31.150Z,47.00
2023-02-11T17:09:06.266Z,42.50
2023-02-11T17:11:37.968Z,39.20
2023-02-11T17:14:13.829Z,33.00
2023-02-11T17:16:51.777Z,39.30
2023-02-11T17:19:26.312Z,42.60
2023-02-11T17:21:57.981Z,36.10
2023-02-11T17:24:33.094Z,32.80
2023-02-11T17:27:04.258Z,33.00
2023-02-11T17:29:36.040Z,26.40
2023-02-11T17:32:15.413Z,29.70
2023-02-11T17:34:46.510Z,26.80
2023-02-11T17:37:17.668Z,21.70
2023-02-11T17:39:53.431Z,25.90
2023-02-11T17:42:35.912Z,26.40
2023-02-11T17:45:08.541Z,29.40
2023-02-11T17:47:39.947Z,22.60
2023-02-11T17:50:13.129Z,27.50
2023-02-11T17:52:44.766Z,32.00
2023-02-11T17:55:18.111Z,29.30
2023-02-11T17:57:52.341Z,28.30
2023-02-11T18:00:28.682Z,30.00
2023-02-11T18:03:02.880Z,29.80
2023-02-11T18:05:43.642Z,31.00
2023-02-11T18:08:20.609Z,35.50
2023-02-11T18:10:51.552Z,27.10
2023-02-11T18:13:33.218Z,29.30
2023-02-11T18:16:16.315Z,34.40
2023-02-11T18:18:47.447Z,26.50
2023-02-11T18:21:34.779Z,31.40
2023-02-11T18:24:25.910Z,24.90
2023-02-11T18:27:00.496Z,26.70
2023-02-11T18:29:32.551Z,26.20
2023-02-11T18:32:05.664Z,31.80
2023-02-11T18:34:39.743Z,24.00
2023-02-11T18:37:14.401Z,28.80
2023-02-11T18:39:51.509Z,28.00
2023-02-11T18:42:32.972Z,21.30
2023-02-11T18:45:11.688Z,27.60
2023-02-11T18:47:57.648Z,29.10
2023-02-11T18:50:32.599Z,23.50
2023-02-11T18:53:07.521Z,32.00
2023-02-11T18:55:44.042Z,22.30
2023-02-11T18:58:16.502Z,20.50
2023-02-11T19:00:57.233Z,28.30
2023-02-11T19:03:42.284Z,24.50
2023-02-11T19:06:24.550Z,22.10
2023-02-11T19:09:09.668Z,21.90
2023-02-11T19:11:53.890Z,20.70
2023-02-11T19:14:28.577Z,20.70
2023-02-11T19:17:05.295Z,21.20
2023-02-11T19:19:42.393Z,21.00
2023-02-11T19:22:13.402Z,27.20
2023-02-11T19:24:52.789Z,22.00
2023-02-11T19:27:23.240Z,24.00
2023-02-11T19:29:55.758Z,34.70
2023-02-11T19:32:32.433Z,21.40
2023-02-11T19:35:04.571Z,21.50
2023-02-11T19:37:35.561Z,23.70
2023-02-11T19:40:09.257Z,22.90
2023-02-11T19:42:40.100Z,26.40
2023-02-11T19:45:12.589Z,44.40
2023-02-11T19:47:46.862Z,34.80
2023-02-11T19:50:23.134Z,38.30
2023-02-11T19:52:55.345Z,27.80
2023-02-11T19:55:35.775Z,28.60
2023-02-11T19:58:09.326Z,28.70
2023-02-11T20:00:40.365Z,38.40
2023-02-11T20:03:17.281Z,31.50
2023-02-11T20:05:52.531Z,28.00
2023-02-11T20:08:23.292Z,30.70
2023-02-11T20:11:10.321Z,25.50
2023-02-11T20:13:42.005Z,22.20
2023-02-11T20:16:18.739Z,27.50
2023-02-11T20:18:54.872Z,28.20
2023-02-11T20:21:34.375Z,24.30
2023-02-11T20:24:09.511Z,24.90
2023-02-11T20:26:42.361Z,26.50
2023-02-11T20:29:17.219Z,27.30
2023-02-11T20:31:53.150Z,25.20
2023-02-11T20:34:25.314Z,24.00
2023-02-11T20:36:57.227Z,29.80
2023-02-11T20:39:31.231Z,23.70
2023-02-11T20:42:03.837Z,26.40
2023-02-11T20:44:37.067Z,19.00
2023-02-11T20:47:12.191Z,32.30
2023-02-11T20:49:47.344Z,23.50
2023-02-11T20:52:21.627Z,26.90
2023-02-11T20:54:54.789Z,23.20
2023-02-11T20:57:25.852Z,23.90
2023-02-11T20:59:59.425Z,19.30
2023-02-11T21:02:31.014Z,21.60
2023-02-11T21:05:05.003Z,18.50
2023-02-11T21:07:37.575Z,16.70
2023-02-11T21:10:13.046Z,22.60
2023-02-11T21:12:49.531Z,20.00
2023-02-11T21:15:25.132Z,18.80
2023-02-11T21:17:56.492Z,16.70
2023-02-11T21:20:31.834Z,21.70
2023-02-11T21:23:07.398Z,18.40
2023-02-11T21:25:38.378Z,18.70
2023-02-11T21:28:11.552Z,19.10
2023-02-11T21:30:53.357Z,26.60
2023-02-11T21:33:28.465Z,16.60
2023-02-11T21:36:01.938Z,19.40
2023-02-11T21:38:35.976Z,19.60
2023-02-11T21:41:08.198Z,21.20
2023-02-11T21:43:42.313Z,22.50
2023-02-11T21:46:17.132Z,18.80
2023-02-11T21:48:49.345Z,18.60
2023-02-11T21:51:22.271Z,23.30
2023-02-11T21:54:00.919Z,19.10
2023-02-11T21:56:33.168Z,21.30
2023-02-11T21:59:03.607Z,25.00
2023-02-11T22:01:37.521Z,16.80
2023-02-11T22:04:08.943Z,16.20
2023-02-11T22:06:43.501Z,12.80
2023-02-11T22:09:16.915Z,14.60
2023-02-11T22:11:48.969Z,18.60
2023-02-11T22:14:31.230Z,17.30
2023-02-11T22:17:04.852Z,15.30
2023-02-11T22:19:35.315Z,24.30
2023-02-11T22:22:08.138Z,20.50
2023-02-11T22:24:41.416Z,22.60
2023-02-11T22:27:17.397Z,23.80
2023-02-11T22:29:49.802Z,22.60
2023-02-11T22:32:21.248Z,21.60
2023-02-11T22:34:53.572Z,19.40
2023-02-11T22:37:25.294Z,21.80
2023-02-11T22:39:55.578Z,18.30
2023-02-11T22:42:26.363Z,20.40
2023-02-11T22:44:56.835Z,16.90
2023-02-11T22:47:32.940Z,18.70
2023-02-11T22:50:03.939Z,15.90
2023-02-11T22:52:36.589Z,17.50
2023-02-11T22:55:08.075Z,17.40
2023-02-11T22:57:38.670Z,16.30
2023-02-11T23:00:11.904Z,16.40
2023-02-11T23:02:43.661Z,24.50
2023-02-11T23:05:17.520Z,15.90
2023-02-11T23:07:47.973Z,21.50
2023-02-11T23:10:18.655Z,20.70
2023-02-11T23:12:48.935Z,14.30
2023-02-11T23:15:22.270Z,17.30
2023-02-11T23:17:53.722Z,15.50
2023-02-11T23:20:24.104Z,16.50
2023-02-11T23:22:54.532Z,18.70
2023-02-11T23:25:27.522Z,14.40
2023-02-11T23:27:58.243Z,20.30
2023-02-11T23:30:28.929Z,16.00
2023-02-11T23:32:59.393Z,13.90
2023-02-11T23:35:29.670Z,16.50
2023-02-11T23:38:00.372Z,16.60
2023-02-11T23:40:30.636Z,16.90
2023-02-11T23:43:01.767Z,15.00
2023-02-11T23:45:36.195Z,17.70
2023-02-11T23:48:07.157Z,17.30
2023-02-11T23:50:43.761Z,19.50
2023-02-11T23:53:14.561Z,18.60
2023-02-11T23:55:47.183Z,22.60
2023-02-11T23:58:17.782Z,20.10
